Gaz Venture — 3FLQ4 — position and weather

sailwx.info

Track history (hours):
 
Tides and Currents Weather Stations Pressure Air Temp Water Temp Dewpoint Dewpoint Depression Visibility Wind Speed Wind Dir Waves Ship Positions

Gaz Venture

Last reported at 2015-Aug-26 07:11 UTC. Time now 2015-Aug-28 07:27 UTC.
Position N 35°58' E 015°07'.

Length 120 m; draft 7.1 m.

Type: Ship (hazmat cat D). MMSI: 356141000.

Date/timePositionNaut miles runAvg speedWind from/ knotsBaromVisibWave heightAir tempDewpointWater temp
2015-Aug-26 07:11N 35°58' E 015°07'914.6
2015-Aug-26 06:33N 35°51' E 015°01'1313.5
2015-Aug-26 05:33N 35°39' E 014°51'0 0.3
2015-Aug-26 04:33N 35°40' E 014°51'0 0.3
2015-Aug-26 03:30N 35°40' E 014°51'0 0.4
2015-Aug-26 02:33N 35°40' E 014°51'0 0.3
2015-Aug-26 01:33N 35°40' E 014°51'0 0.2
2015-Aug-26 00:33N 35°40' E 014°50'0 0.3
2015-Aug-25 23:33N 35°41' E 014°50'0 0.3
2015-Aug-25 22:33N 35°41' E 014°50'0 0.4
2015-Aug-25 21:33N 35°41' E 014°49'0 0.5
2015-Aug-25 20:33N 35°41' E 014°49'1 0.6
2015-Aug-25 19:33N 35°42' E 014°48'1 0.6
2015-Aug-25 18:33N 35°42' E 014°48'0 0.5
2015-Aug-25 17:33N 35°41' E 014°47'0 0.5
2015-Aug-25 16:33N 35°41' E 014°46'0 0.5
2015-Aug-25 15:33N 35°41' E 014°46'1 1.1
2015-Aug-25 14:33N 35°40' E 014°45'3 3.5
2015-Aug-25 13:33N 35°40' E 014°49'9 9.5
2015-Aug-25 12:33N 35°31' E 014°46'1414.5
2015-Aug-25 11:33N 35°19' E 014°37'1514.7
2015-Aug-25 10:33N 35°06' E 014°27'1514.9
2015-Aug-25 09:32N 34°54' E 014°16'1515.1
2015-Aug-25 08:33N 34°42' E 014°05'1514.9
2015-Aug-25 07:33N 34°31' E 013°54'1514.7
2015-Aug-25 06:33N 34°19' E 013°43'1514.7
2015-Aug-25 05:33N 34°08' E 013°31'1514.5
2015-Aug-25 04:33N 33°57' E 013°20'1414.5
2015-Aug-25 03:33N 33°46' E 013°09'1414.5
2015-Aug-25 02:33N 33°35' E 012°58'1514.6
2015-Aug-25 01:33N 33°24' E 012°46'1514.5
2015-Aug-25 00:33N 33°13' E 012°35'1514.5
2015-Aug-24 23:33N 33°01' E 012°24'1110.8
2015-Aug-24 22:31N 32°53' E 012°15'0 0.3
2015-Aug-24 21:33N 32°53' E 012°15'0 0.0
2015-Aug-24 20:33N 32°53' E 012°15'0 0.0
2015-Aug-24 18:33N 32°53' E 012°15'0 0.0
2015-Aug-24 17:33N 32°53' E 012°15'0 0.0
2015-Aug-24 15:33N 32°53' E 012°15'0 0.0
2015-Aug-24 14:12N 32°53' E 012°15'0 0.0
2015-Aug-24 12:33N 32°53' E 012°15'0 0.0
2015-Aug-24 10:30N 32°53' E 012°15'0 0.0
2015-Aug-24 09:33N 32°53' E 012°15'0 0.0
2015-Aug-24 08:27N 32°53' E 012°15'0 0.0
2015-Aug-24 06:18N 32°53' E 012°15'2 2.8
2015-Aug-24 05:33N 32°54' E 012°16'3 2.3
2015-Aug-24 04:29N 32°57' E 012°16'0 0.0
2015-Aug-24 03:32N 32°57' E 012°16'0 0.0
2015-Aug-24 02:29N 32°57' E 012°16'0 0.0
2015-Aug-24 01:32N 32°57' E 012°16'0 0.0
2015-Aug-24 00:32N 32°57' E 012°16'0 0.0
2015-Aug-23 23:32N 32°57' E 012°16'6 6.4
2015-Aug-23 22:34N 33°02' E 012°20'1414.4
2015-Aug-23 21:33N 33°13' E 012°31'1514.7
2015-Aug-23 20:33N 33°24' E 012°42'1514.8
2015-Aug-23 19:34N 33°36' E 012°54'1514.7
2015-Aug-23 18:34N 33°47' E 013°05'1514.7
2015-Aug-23 17:33N 33°59' E 013°16'1914.7
2015-Aug-23 16:14N 34°14' E 013°30'1014.7
2015-Aug-23 15:33N 34°22' E 013°38'1614.5
2015-Aug-23 14:28N 34°34' E 013°50'4414.7
2015-Aug-23 11:29N 35°08' E 014°24'1815.0
2015-Aug-23 10:18N 35°22' E 014°37'1115.0
2015-Aug-23 09:33N 35°31' E 014°46'1615.3
2015-Aug-23 08:31N 35°43' E 014°58'5215.2
2015-Aug-23 05:07N 36°26' E 015°33'1015.3
2015-Aug-23 04:30N 36°34' E 015°39'  
2015-Aug-19 22:32N 37°50' E 015°59'1414.2
2015-Aug-19 21:33N 37°52' E 015°42'1313.3
2015-Aug-19 20:33N 38°03' E 015°34'1312.6
2015-Aug-19 19:33N 38°15' E 015°39'1211.6
2015-Aug-19 18:34N 38°27' E 015°36'1413.7
2015-Aug-19 17:33N 38°39' E 015°30'1615.4
2015-Aug-19 16:33N 38°54' E 015°22'10715.1
2015-Aug-19 09:27N 40°26' E 014°11'1213.5
2015-Aug-19 08:33N 40°38' E 014°11'1313.0
2015-Aug-19 07:33N 40°50' E 014°18'1 0.7
2015-Aug-19 06:25N 40°50' E 014°18'0 0.0
2015-Aug-18 20:04N 40°50' E 014°18'0 0.0
2015-Aug-18 19:11N 40°50' E 014°18'2 3.3
2015-Aug-18 18:34N 40°48' E 014°19'0 0.1
2015-Aug-18 17:28N 40°48' E 014°19'0 0.0
2015-Aug-18 16:19N 40°48' E 014°19'0 0.0
2015-Aug-18 15:31N 40°48' E 014°19'0 0.0
2015-Aug-18 14:28N 40°48' E 014°19'0 0.0
2015-Aug-18 13:28N 40°49' E 014°19'0 0.0
2015-Aug-18 12:31N 40°49' E 014°19'0 0.0
2015-Aug-18 11:28N 40°49' E 014°19'0 0.0
2015-Aug-18 10:31N 40°49' E 014°19'0 0.0
2015-Aug-18 08:19N 40°48' E 014°19'0 0.0
2015-Aug-18 07:25N 40°48' E 014°19'0 0.0
2015-Aug-18 06:22N 40°48' E 014°19'0 0.0
2015-Aug-18 05:31N 40°48' E 014°19'0 0.1
2015-Aug-18 04:28N 40°49' E 014°19'0 0.0
2015-Aug-18 04:04N 40°49' E 014°19'0 0.0
2015-Aug-18 03:31N 40°49' E 014°19'0 0.0
2015-Aug-18 02:31N 40°49' E 014°19'0 0.0
2015-Aug-18 01:28N 40°48' E 014°19'0 0.0
2015-Aug-18 00:28N 40°48' E 014°19'0 0.0
2015-Aug-17 23:31N 40°48' E 014°19'0 0.0
2015-Aug-17 22:31N 40°48' E 014°19'0 0.0
2015-Aug-17 21:31N 40°48' E 014°19'0 0.0
2015-Aug-17 20:28N 40°48' E 014°19'0 0.0
2015-Aug-17 19:31N 40°48' E 014°19'0 0.0
2015-Aug-17 18:28N 40°48' E 014°19'3 3.9
2015-Aug-17 17:33N 40°46' E 014°16'1313.3
2015-Aug-17 16:34N 40°35' E 014°06'1413.9
2015-Aug-17 15:33N 40°23' E 013°56'16913.9
2015-Aug-17 03:24N 38°01' E 011°56'1313.4
2015-Aug-17 02:26N 37°49' E 011°55'10813.7
2015-Aug-16 18:34N 36°01' E 011°55'  
Track history (hours):
 
Tides and Currents Weather Stations Pressure Air Temp Water Temp Dewpoint Dewpoint Depression Visibility Wind Speed Wind Dir Waves Ship Positions

Gaz Venture

Last reported at 2015-Aug-26 07:11 UTC. Time now 2015-Aug-28 07:27 UTC.
Position N 35°58' E 015°07'.

Length 120 m; draft 7.1 m.

Type: Ship (hazmat cat D). MMSI: 356141000.

Date/timePositionNaut miles runAvg speedWind from/ knotsBaromVisibWave heightAir tempDewpointWater temp
2015-Aug-26 07:11N 35°58' E 015°07'914.6
2015-Aug-26 06:33N 35°51' E 015°01'1313.5
2015-Aug-26 05:33N 35°39' E 014°51'0 0.3
2015-Aug-26 04:33N 35°40' E 014°51'0 0.3
2015-Aug-26 03:30N 35°40' E 014°51'0 0.4
2015-Aug-26 02:33N 35°40' E 014°51'0 0.3
2015-Aug-26 01:33N 35°40' E 014°51'0 0.2
2015-Aug-26 00:33N 35°40' E 014°50'0 0.3
2015-Aug-25 23:33N 35°41' E 014°50'0 0.3
2015-Aug-25 22:33N 35°41' E 014°50'0 0.4
2015-Aug-25 21:33N 35°41' E 014°49'0 0.5
2015-Aug-25 20:33N 35°41' E 014°49'1 0.6
2015-Aug-25 19:33N 35°42' E 014°48'1 0.6
2015-Aug-25 18:33N 35°42' E 014°48'0 0.5
2015-Aug-25 17:33N 35°41' E 014°47'0 0.5
2015-Aug-25 16:33N 35°41' E 014°46'0 0.5
2015-Aug-25 15:33N 35°41' E 014°46'1 1.1
2015-Aug-25 14:33N 35°40' E 014°45'3 3.5
2015-Aug-25 13:33N 35°40' E 014°49'9 9.5
2015-Aug-25 12:33N 35°31' E 014°46'1414.5
2015-Aug-25 11:33N 35°19' E 014°37'1514.7
2015-Aug-25 10:33N 35°06' E 014°27'1514.9
2015-Aug-25 09:32N 34°54' E 014°16'1515.1
2015-Aug-25 08:33N 34°42' E 014°05'1514.9
2015-Aug-25 07:33N 34°31' E 013°54'1514.7
2015-Aug-25 06:33N 34°19' E 013°43'1514.7
2015-Aug-25 05:33N 34°08' E 013°31'1514.5
2015-Aug-25 04:33N 33°57' E 013°20'1414.5
2015-Aug-25 03:33N 33°46' E 013°09'1414.5
2015-Aug-25 02:33N 33°35' E 012°58'1514.6
2015-Aug-25 01:33N 33°24' E 012°46'1514.5
2015-Aug-25 00:33N 33°13' E 012°35'1514.5
2015-Aug-24 23:33N 33°01' E 012°24'1110.8
2015-Aug-24 22:31N 32°53' E 012°15'0 0.3
2015-Aug-24 21:33N 32°53' E 012°15'0 0.0
2015-Aug-24 20:33N 32°53' E 012°15'0 0.0
2015-Aug-24 18:33N 32°53' E 012°15'0 0.0
2015-Aug-24 17:33N 32°53' E 012°15'0 0.0
2015-Aug-24 15:33N 32°53' E 012°15'0 0.0
2015-Aug-24 14:12N 32°53' E 012°15'0 0.0
2015-Aug-24 12:33N 32°53' E 012°15'0 0.0
2015-Aug-24 10:30N 32°53' E 012°15'0 0.0
2015-Aug-24 09:33N 32°53' E 012°15'0 0.0
2015-Aug-24 08:27N 32°53' E 012°15'0 0.0
2015-Aug-24 06:18N 32°53' E 012°15'2 2.8
2015-Aug-24 05:33N 32°54' E 012°16'3 2.3
2015-Aug-24 04:29N 32°57' E 012°16'0 0.0
2015-Aug-24 03:32N 32°57' E 012°16'0 0.0
2015-Aug-24 02:29N 32°57' E 012°16'0 0.0
2015-Aug-24 01:32N 32°57' E 012°16'0 0.0
2015-Aug-24 00:32N 32°57' E 012°16'0 0.0
2015-Aug-23 23:32N 32°57' E 012°16'6 6.4
2015-Aug-23 22:34N 33°02' E 012°20'1414.4
2015-Aug-23 21:33N 33°13' E 012°31'1514.7
2015-Aug-23 20:33N 33°24' E 012°42'1514.8
2015-Aug-23 19:34N 33°36' E 012°54'1514.7
2015-Aug-23 18:34N 33°47' E 013°05'1514.7
2015-Aug-23 17:33N 33°59' E 013°16'1914.7
2015-Aug-23 16:14N 34°14' E 013°30'1014.7
2015-Aug-23 15:33N 34°22' E 013°38'1614.5
2015-Aug-23 14:28N 34°34' E 013°50'4414.7
2015-Aug-23 11:29N 35°08' E 014°24'1815.0
2015-Aug-23 10:18N 35°22' E 014°37'1115.0
2015-Aug-23 09:33N 35°31' E 014°46'1615.3
2015-Aug-23 08:31N 35°43' E 014°58'5215.2
2015-Aug-23 05:07N 36°26' E 015°33'1015.3
2015-Aug-23 04:30N 36°34' E 015°39'  
2015-Aug-19 22:32N 37°50' E 015°59'1414.2
2015-Aug-19 21:33N 37°52' E 015°42'1313.3
2015-Aug-19 20:33N 38°03' E 015°34'1312.6
2015-Aug-19 19:33N 38°15' E 015°39'1211.6
2015-Aug-19 18:34N 38°27' E 015°36'1413.7
2015-Aug-19 17:33N 38°39' E 015°30'1615.4
2015-Aug-19 16:33N 38°54' E 015°22'10715.1
2015-Aug-19 09:27N 40°26' E 014°11'1213.5
2015-Aug-19 08:33N 40°38' E 014°11'1313.0
2015-Aug-19 07:33N 40°50' E 014°18'1 0.7
2015-Aug-19 06:25N 40°50' E 014°18'0 0.0
2015-Aug-18 20:04N 40°50' E 014°18'0 0.0
2015-Aug-18 19:11N 40°50' E 014°18'2 3.3
2015-Aug-18 18:34N 40°48' E 014°19'0 0.1
2015-Aug-18 17:28N 40°48' E 014°19'0 0.0
2015-Aug-18 16:19N 40°48' E 014°19'0 0.0
2015-Aug-18 15:31N 40°48' E 014°19'0 0.0
2015-Aug-18 14:28N 40°48' E 014°19'0 0.0
2015-Aug-18 13:28N 40°49' E 014°19'0 0.0
2015-Aug-18 12:31N 40°49' E 014°19'0 0.0
2015-Aug-18 11:28N 40°49' E 014°19'0 0.0
2015-Aug-18 10:31N 40°49' E 014°19'0 0.0
2015-Aug-18 08:19N 40°48' E 014°19'0 0.0
2015-Aug-18 07:25N 40°48' E 014°19'0 0.0
2015-Aug-18 06:22N 40°48' E 014°19'0 0.0
2015-Aug-18 05:31N 40°48' E 014°19'0 0.1
2015-Aug-18 04:28N 40°49' E 014°19'0 0.0
2015-Aug-18 04:04N 40°49' E 014°19'0 0.0
2015-Aug-18 03:31N 40°49' E 014°19'0 0.0
2015-Aug-18 02:31N 40°49' E 014°19'0 0.0
2015-Aug-18 01:28N 40°48' E 014°19'0 0.0
2015-Aug-18 00:28N 40°48' E 014°19'0 0.0
2015-Aug-17 23:31N 40°48' E 014°19'0 0.0
2015-Aug-17 22:31N 40°48' E 014°19'0 0.0
2015-Aug-17 21:31N 40°48' E 014°19'0 0.0
2015-Aug-17 20:28N 40°48' E 014°19'0 0.0
2015-Aug-17 19:31N 40°48' E 014°19'0 0.0
2015-Aug-17 18:28N 40°48' E 014°19'3 3.9
2015-Aug-17 17:33N 40°46' E 014°16'1313.3
2015-Aug-17 16:34N 40°35' E 014°06'1413.9
2015-Aug-17 15:33N 40°23' E 013°56'16913.9
2015-Aug-17 03:24N 38°01' E 011°56'1313.4
2015-Aug-17 02:26N 37°49' E 011°55'10813.7
2015-Aug-16 18:34N 36°01' E 011°55'  

Dump ship's entire track history